Time;durP1;ratioP1;P1;durP2;ratioP2;P2;SDS_P1;SDS_P2;PMS_P1;PMS_P2;Temp;Humidity;BMP_temperature;BMP_pressure;BME280_temperature;BME280_humidity;BME280_pressure;Samples;Min_cycle;Max_cycle;Signal;HPM_P1;HPM_P2
2021/04/16 00:02:34;;;;;;;38.15;22.42;;;;;;;2.43;88.20;99207.64;4615331;76;21384;-90
2021/04/16 00:08:37;;;;;;;32.75;20.70;;;;;;;2.35;88.19;99193.59;4608889;77;21126;-89
2021/04/16 00:14:40;;;;;;;34.43;20.82;;;;;;;2.39;88.33;99195.89;4608960;77;21169;-87
2021/04/16 00:20:42;;;;;;;39.75;20.17;;;;;;;2.36;88.26;99195.98;4621487;76;21130;-88
2021/04/16 00:26:44;;;;;;;30.68;18.73;;;;;;;2.31;88.30;99185.86;4611679;76;21148;-90
2021/04/16 00:32:45;;;;;;;28.27;16.95;;;;;;;2.32;88.42;99178.79;4634642;76;21121;-90
2021/04/16 00:38:48;;;;;;;32.03;17.45;;;;;;;2.32;88.39;99178.79;4609502;77;21612;-89
2021/04/16 00:44:50;;;;;;;29.37;16.95;;;;;;;2.25;88.46;99178.48;4609014;77;21119;-90
2021/04/16 00:50:55;;;;;;;27.15;15.93;;;;;;;2.29;88.52;99176.72;4677325;76;21098;-89
2021/04/16 00:56:57;;;;;;;30.60;17.42;;;;;;;2.31;88.51;99179.11;4666641;76;21145;-90
2021/04/16 01:03:01;;;;;;;30.88;16.25;;;;;;;2.27;88.42;99180.28;4700569;75;21658;-89
2021/04/16 01:09:03;;;;;;;27.70;16.20;;;;;;;2.27;88.87;99173.53;4620279;77;21608;-89
2021/04/16 01:15:23;;;;;;;29.50;17.05;;;;;;;2.23;88.42;99182.59;4636806;77;21161;-89
2021/04/16 01:21:24;;;;;;;29.23;16.82;;;;;;;2.19;88.56;99175.69;4673459;76;21427;-90
2021/04/16 01:27:27;;;;;;;;;;;;;;;2.20;88.50;99175.92;4644329;76;21167;-90
2021/04/16 01:33:33;;;;;;;36.35;20.40;;;;;;;2.18;88.68;99177.33;4617761;77;20186;-89
2021/04/16 01:39:34;;;;;;;40.23;19.20;;;;;;;2.18;88.64;99173.28;4616131;77;21128;-89
2021/04/16 01:45:36;;;;;;;38.13;19.70;;;;;;;2.19;88.75;99182.98;4640213;77;21585;-88
2021/04/16 01:51:37;;;;;;;32.85;18.52;;;;;;;2.14;88.73;99176.38;4670658;76;21145;-89
2021/04/16 01:57:39;;;;;;;37.42;19.70;;;;;;;2.17;88.57;99174.40;4623395;76;21631;-90
2021/04/16 02:03:40;;;;;;;40.67;19.77;;;;;;;2.20;88.75;99167.82;4586824;77;21276;-91
2021/04/16 02:09:42;;;;;;;40.00;19.95;;;;;;;2.14;88.59;99156.13;4497263;79;21112;-91
2021/04/16 02:15:44;;;;;;;34.35;19.48;;;;;;;2.09;88.63;99153.57;4425767;79;21158;-89
2021/04/16 02:21:46;;;;;;;42.03;20.88;;;;;;;2.05;88.60;99162.85;4464047;79;21151;-90
2021/04/16 02:27:48;;;;;;;46.18;23.20;;;;;;;2.00;88.65;99154.92;4484587;79;21147;-89
2021/04/16 02:33:50;;;;;;;37.25;20.55;;;;;;;1.95;88.58;99150.22;4461108;79;21137;-89
2021/04/16 02:39:52;;;;;;;44.15;21.82;;;;;;;1.91;88.50;99146.56;4508249;78;21153;-89
2021/04/16 02:45:54;;;;;;;44.80;21.52;;;;;;;1.83;88.69;99133.30;4479672;79;21168;-89
2021/04/16 02:51:56;;;;;;;42.58;21.42;;;;;;;1.89;88.71;99148.77;4407476;81;21162;-89
2021/04/16 02:57:57;;;;;;;44.13;20.80;;;;;;;1.85;88.72;99149.95;4460515;79;21188;-89
2021/04/16 03:03:59;;;;;;;41.18;19.87;;;;;;;1.79;88.54;99149.86;4396556;80;21717;-88
2021/04/16 03:10:00;;;;;;;39.70;20.00;;;;;;;1.76;88.69;99149.68;4400788;80;21201;-87
2021/04/16 03:16:03;;;;;;;38.50;19.67;;;;;;;1.74;88.73;99147.87;4404081;80;21162;-89
2021/04/16 03:22:05;;;;;;;38.50;19.77;;;;;;;1.71;88.83;99151.20;4399392;80;21157;-88
2021/04/16 03:28:07;;;;;;;40.43;19.70;;;;;;;1.70;88.92;99148.24;4374515;81;21140;-88
2021/04/16 03:34:08;;;;;;;39.83;18.12;;;;;;;1.62;88.92;99128.22;4374287;81;21192;-88
2021/04/16 03:40:14;;;;;;;34.50;19.15;;;;;;;1.75;89.03;99142.16;4405450;80;21166;-90
2021/04/16 03:46:17;;;;;;;38.43;20.03;;;;;;;1.74;89.04;99144.59;4410490;80;21684;-90
2021/04/16 03:52:25;;;;;;;35.30;18.05;;;;;;;1.73;89.07;99143.56;4420352;79;21741;-89
2021/04/16 03:58:26;;;;;;;37.13;18.35;;;;;;;1.70;88.97;99152.29;4547400;76;21638;-88
2021/04/16 04:04:27;;;;;;;35.63;18.98;;;;;;;1.63;88.81;99152.73;4457587;79;21134;-87
2021/04/16 04:10:35;;;;;;;34.03;16.73;;;;;;;1.54;88.71;99151.38;4297294;81;27282;-90
2021/04/16 04:16:57;;;;;;;33.02;16.87;;;;;;;1.32;89.04;99131.75;4240008;82;21196;-88
2021/04/16 04:23:01;;;;;;;31.10;16.30;;;;;;;1.32;89.04;99131.75;4268742;82;21159;-89
2021/04/16 04:29:02;;;;;;;33.10;16.37;;;;;;;1.46;89.13;99152.67;4298067;81;21226;-85
2021/04/16 04:35:05;;;;;;;30.37;15.78;;;;;;;1.48;89.13;99155.33;4214433;82;21179;-85
2021/04/16 04:41:06;;;;;;;29.02;16.17;;;;;;;1.43;89.04;99152.76;4217648;83;21237;-85
2021/04/16 04:47:10;;;;;;;28.27;16.10;;;;;;;1.48;89.09;99159.38;4208726;82;21797;-84
2021/04/16 04:53:12;;;;;;;33.45;18.48;;;;;;;1.55;89.22;99155.66;4321439;81;21229;-85
2021/04/16 04:59:13;;;;;;;32.42;16.87;;;;;;;1.55;89.22;99155.66;4335363;79;21168;-84
2021/04/16 05:05:18;;;;;;;28.38;16.35;;;;;;;1.55;89.27;99158.35;4368847;79;21166;-85
2021/04/16 05:11:19;;;;;;;28.55;16.30;;;;;;;1.48;89.30;99137.79;4370878;79;21201;-84
2021/04/16 05:17:21;;;;;;;30.37;17.37;;;;;;;1.52;89.43;99133.34;4273263;81;21214;-84
2021/04/16 05:23:23;;;;;;;29.30;17.00;;;;;;;1.66;89.31;99154.03;4368371;79;21127;-84
2021/04/16 05:29:24;;;;;;;30.17;17.40;;;;;;;1.63;89.30;99159.48;4365807;79;21210;-84
2021/04/16 05:35:26;;;;;;;32.08;18.92;;;;;;;1.59;89.20;99164.73;4368621;79;21160;-84
2021/04/16 05:41:28;;;;;;;30.08;16.60;;;;;;;1.59;89.20;99164.73;4366404;79;21712;-84
2021/04/16 05:47:31;;;;;;;27.87;17.00;;;;;;;1.54;89.16;99168.11;4274925;81;22466;-84
2021/04/16 05:53:33;;;;;;;31.97;16.73;;;;;;;1.55;89.25;99173.77;4362810;79;21154;-84
2021/04/16 05:59:34;;;;;;;29.85;16.30;;;;;;;1.48;89.29;99174.75;4347426;79;21208;-84
2021/04/16 06:05:37;;;;;;;27.70;16.12;;;;;;;1.47;89.52;99167.20;4300493;81;21168;-84
2021/04/16 06:11:39;;;;;;;29.02;17.07;;;;;;;1.58;89.74;99161.77;4290455;81;22049;-84
2021/04/16 06:17:41;;;;;;;32.80;17.75;;;;;;;1.67;89.71;99154.27;4226137;80;26800;-85
2021/04/16 06:23:43;;;;;;;31.07;17.60;;;;;;;1.75;89.91;99151.61;4150812;84;21825;-84
2021/04/16 06:29:45;;;;;;;25.68;15.75;;;;;;;1.86;89.76;99157.50;4136541;84;21136;-85
2021/04/16 06:35:56;;;;;;;38.15;19.57;;;;;;;1.81;89.74;99157.09;4138076;84;21353;-84
2021/04/16 06:42:00;;;;;;;31.82;16.93;;;;;;;1.86;89.88;99159.66;4135655;83;21212;-84
2021/04/16 06:48:06;;;;;;;28.05;16.07;;;;;;;1.97;89.83;99154.20;4125158;84;21220;-85
2021/04/16 06:54:13;;;;;;;31.07;17.87;;;;;;;1.99;89.73;99157.94;4140874;84;21676;-85
2021/04/16 07:00:41;;;;;;;26.02;15.15;;;;;;;2.01;89.83;99162.45;4161414;83;21208;-84
2021/04/16 07:06:43;;;;;;;27.82;16.00;;;;;;;2.11;89.71;99156.77;4173779;83;21229;-85
2021/04/16 07:12:46;;;;;;;24.65;14.53;;;;;;;2.18;89.81;99161.13;4167140;82;21164;-84
2021/04/16 07:18:53;;;;;;;23.20;13.95;;;;;;;2.18;89.82;99155.72;4159555;83;21642;-85
2021/04/16 07:24:55;;;;;;;26.73;16.10;;;;;;;2.19;89.70;99162.19;4119003;84;21137;-85
2021/04/16 07:30:56;;;;;;;22.75;14.03;;;;;;;2.20;89.81;99159.72;4180692;83;21184;-85
2021/04/16 07:37:10;;;;;;;25.05;14.43;;;;;;;2.17;89.85;99164.41;4182900;83;21711;-85
2021/04/16 07:43:41;;;;;;;26.30;15.83;;;;;;;2.24;89.90;99164.72;4172920;83;21184;-84
2021/04/16 07:49:59;;;;;;;26.42;14.38;;;;;;;2.30;89.84;99166.72;4165594;83;21156;-85
2021/04/16 07:56:18;;;;;;;19.90;12.85;;;;;;;2.34;89.85;99165.77;4119472;84;21262;-86
2021/04/16 08:02:28;;;;;;;21.73;12.93;;;;;;;2.37;89.84;99170.53;4125908;84;21204;-85
2021/04/16 08:08:32;;;;;;;19.87;12.07;;;;;;;2.38;89.60;99169.41;4130026;84;21602;-86
2021/04/16 08:14:39;;;;;;;22.25;12.70;;;;;;;2.40;89.45;99167.20;4128726;84;21157;-85
2021/04/16 08:21:06;;;;;;;20.60;10.70;;;;;;;2.46;89.75;99165.16;4125472;85;21143;-85
2021/04/16 08:27:34;;;;;;;21.97;13.30;;;;;;;2.43;89.69;99173.86;4130949;85;21182;-84
2021/04/16 08:33:47;;;;;;;18.32;12.07;;;;;;;2.44;89.66;99172.23;4128858;85;21174;-85
2021/04/16 08:39:49;;;;;;;25.43;13.90;;;;;;;2.52;89.69;99167.35;4219693;83;21161;-84
2021/04/16 08:45:50;;;;;;;25.97;13.20;;;;;;;2.59;89.79;99177.14;4223592;83;21184;-85
2021/04/16 08:52:00;;;;;;;21.23;13.03;;;;;;;2.58;89.58;99175.56;4217154;83;21829;-86
2021/04/16 08:58:25;;;;;;;25.95;14.90;;;;;;;2.61;89.54;99182.23;4153441;84;21155;-85
2021/04/16 09:04:41;;;;;;;24.95;13.95;;;;;;;2.62;89.57;99183.27;4081750;86;21210;-85
2021/04/16 09:10:53;;;;;;;24.07;13.68;;;;;;;2.57;89.56;99181.29;4219726;82;21173;-85
2021/04/16 09:17:04;;;;;;;23.30;14.23;;;;;;;2.57;89.72;99181.29;4192141;83;21307;-85
2021/04/16 09:23:28;;;;;;;21.17;13.50;;;;;;;2.62;89.56;99184.61;4137837;84;21162;-85
2021/04/16 09:29:39;;;;;;;26.40;15.13;;;;;;;2.65;89.76;99188.03;4061993;86;21194;-85
2021/04/16 09:36:06;;;;;;;23.65;14.58;;;;;;;2.63;89.55;99194.30;4129985;85;21206;-85
2021/04/16 09:42:43;;;;;;;24.18;14.80;;;;;;;2.70;89.80;99195.19;4129035;85;21226;-85
2021/04/16 09:48:50;;;;;;;24.02;14.40;;;;;;;2.70;89.62;99193.28;4127635;85;21208;-84
2021/04/16 09:54:52;;;;;;;26.93;16.30;;;;;;;2.71;89.70;99184.63;4131332;85;21126;-85
2021/04/16 10:00:59;;;;;;;31.35;17.82;;;;;;;2.82;89.55;99185.31;4094021;85;21225;-85
2021/04/16 10:07:03;;;;;;;26.73;17.02;;;;;;;2.86;89.91;99180.08;4044360;86;21693;-85
2021/04/16 10:13:21;;;;;;;28.77;18.45;;;;;;;2.97;89.73;99180.79;4106010;84;21303;-85
2021/04/16 10:19:29;;;;;;;26.45;16.85;;;;;;;3.04;89.78;99182.43;4122288;84;21292;-85
2021/04/16 10:33:37;;;;;;;27.48;15.70;;;;;;;3.06;89.58;99176.16;4125955;84;21177;-85
2021/04/16 12:40:08;;;;;;;22.80;13.55;;;;;;;3.81;89.89;99207.11;4400535;80;21304;-85
2021/04/16 12:46:11;;;;;;;25.10;14.50;;;;;;;3.75;89.93;99201.09;4413286;80;21152;-85
2021/04/16 12:52:16;;;;;;;23.57;13.50;;;;;;;3.77;89.87;99199.41;4369649;80;24929;-85
2021/04/16 12:58:29;;;;;;;22.93;13.08;;;;;;;3.71;89.82;99200.72;4316972;81;21204;-85
2021/04/16 13:04:34;;;;;;;23.62;13.68;;;;;;;3.71;89.93;99194.72;4300716;81;21626;-85
2021/04/16 13:10:37;;;;;;;23.55;12.93;;;;;;;3.70;90.13;99204.52;4291554;81;21144;-86
2021/04/16 13:16:38;;;;;;;17.73;11.90;;;;;;;3.70;89.95;99203.97;4297558;81;21209;-84
2021/04/16 13:22:42;;;;;;;20.57;13.60;;;;;;;3.77;90.05;99197.51;4312548;81;21153;-85
2021/04/16 13:28:45;;;;;;;19.12;11.63;;;;;;;3.84;90.23;99189.66;4309053;81;21198;-86
2021/04/16 13:34:48;;;;;;;21.02;12.40;;;;;;;3.94;90.15;99189.30;4302041;81;21165;-87
2021/04/16 13:40:51;;;;;;;20.80;12.98;;;;;;;4.02;90.25;99197.14;4207783;83;21600;-86
2021/04/16 13:46:53;;;;;;;22.58;13.62;;;;;;;4.06;90.01;99200.77;4203138;83;21163;-87
2021/04/16 13:52:54;;;;;;;18.90;12.15;;;;;;;4.02;89.80;99199.30;4214141;83;21208;-86
2021/04/16 13:58:55;;;;;;;19.00;12.55;;;;;;;3.98;89.83;99202.96;4200200;83;21147;-87
2021/04/16 14:04:57;;;;;;;23.67;14.03;;;;;;;3.94;90.02;99202.04;4225313;83;21151;-87
2021/04/16 14:11:01;;;;;;;24.27;14.35;;;;;;;3.92;89.99;99201.56;4207340;83;21198;-86
2021/04/16 14:17:10;;;;;;;21.90;13.65;;;;;;;3.88;90.21;99202.80;4218630;82;21174;-86
2021/04/16 14:23:12;;;;;;;26.93;16.45;;;;;;;3.93;90.03;99194.47;4188414;83;21768;-85
2021/04/16 14:29:14;;;;;;;24.75;15.93;;;;;;;3.91;90.07;99209.47;4214001;83;21143;-85
2021/04/16 14:35:16;;;;;;;23.35;15.60;;;;;;;3.89;90.01;99204.38;4215118;83;21236;-85
2021/04/16 14:41:22;;;;;;;25.37;16.17;;;;;;;3.93;90.17;99202.59;4202952;83;21323;-85
2021/04/16 14:47:24;;;;;;;26.12;15.78;;;;;;;4.00;90.14;99211.56;4205759;83;21676;-85
2021/04/16 14:53:39;;;;;;;20.10;13.85;;;;;;;3.94;89.99;99202.84;4197201;83;21734;-86
2021/04/16 14:59:43;;;;;;;21.25;14.75;;;;;;;3.87;89.96;99207.96;4204886;83;21147;-86
2021/04/16 15:05:45;;;;;;;25.12;15.98;;;;;;;3.81;89.86;99218.74;4203541;83;21589;-86
2021/04/16 15:11:49;;;;;;;23.98;15.88;;;;;;;3.77;90.23;99222.42;4214234;83;21306;-86
2021/04/16 15:17:51;;;;;;;24.95;15.65;;;;;;;3.73;90.31;99220.15;4215188;82;21161;-86
2021/04/16 15:23:53;;;;;;;29.60;17.67;;;;;;;3.76;90.28;99226.27;4215692;83;21176;-85
2021/04/16 15:29:58;;;;;;;28.42;17.55;;;;;;;3.76;90.56;99232.45;4187270;83;21194;-85
2021/04/16 15:49:08;;;;;;;30.90;17.67;;;;;;;3.78;90.48;99224.01;4112902;84;21276;-87
2021/04/16 15:55:11;;;;;;;27.40;16.75;;;;;;;3.70;90.41;99226.98;4217294;83;21746;-85
2021/04/16 16:01:18;;;;;;;27.90;17.48;;;;;;;3.73;90.57;99229.63;4207524;82;21163;-85
2021/04/16 16:07:20;;;;;;;36.85;21.50;;;;;;;3.68;90.50;99239.27;4192744;83;21168;-86
2021/04/16 16:13:38;;;;;;;33.60;19.20;;;;;;;3.66;90.63;99242.85;4191965;83;21165;-85
2021/04/16 16:19:39;;;;;;;29.90;18.85;;;;;;;3.65;90.55;99239.92;4228115;83;21329;-85
2021/04/16 16:25:41;;;;;;;38.15;21.35;;;;;;;3.65;90.64;99235.28;4226567;83;21216;-86
2021/04/16 16:31:45;;;;;;;37.88;22.07;;;;;;;3.72;90.74;99238.30;4241082;81;21182;-86
2021/04/16 16:37:46;;;;;;;31.10;20.30;;;;;;;3.67;90.56;99234.95;4262434;81;21288;-85
2021/04/16 16:43:51;;;;;;;34.10;19.52;;;;;;;3.61;90.59;99243.02;4216337;83;21227;-85
2021/04/16 16:49:53;;;;;;;36.35;20.97;;;;;;;3.61;90.64;99247.08;4212896;83;21332;-85
2021/04/16 16:55:57;;;;;;;37.98;22.60;;;;;;;3.59;90.71;99241.98;4211350;83;21653;-85
2021/04/16 17:01:58;;;;;;;37.55;22.98;;;;;;;3.54;90.54;99244.86;4206764;83;21137;-85
2021/04/16 17:08:00;;;;;;;34.38;21.82;;;;;;;3.54;90.58;99250.28;4206887;83;21209;-85
2021/04/16 17:14:07;;;;;;;31.77;22.48;;;;;;;3.54;90.57;99248.15;4205990;83;21161;-85
2021/04/16 17:20:09;;;;;;;;;;;;;;;3.48;90.63;99252.92;4209023;83;21225;-85
2021/04/16 17:26:41;;;;;;;;;;;;;;;;;;;;;
2021/04/16 17:43:40;;;;;;;39.25;23.40;;;;;;;3.51;90.73;99265.03;4385996;79;22962;-84
2021/04/16 17:49:41;;;;;;;43.33;26.37;;;;;;;3.43;90.68;99263.91;4327885;81;21334;-85
2021/04/16 17:55:43;;;;;;;44.25;24.85;;;;;;;3.39;90.83;99267.59;4323411;81;21162;-85
2021/04/16 18:01:46;;;;;;;38.65;23.67;;;;;;;3.38;90.83;99274.12;4335652;80;21376;-84
2021/04/16 18:07:55;;;;;;;46.23;26.62;;;;;;;3.36;90.89;99285.82;4323221;80;21660;-85
2021/04/16 18:13:57;;;;;;;45.12;28.50;;;;;;;3.42;90.82;99286.69;4327892;80;21634;-85
2021/04/16 18:19:59;;;;;;;55.78;32.73;;;;;;;3.42;90.99;99291.30;4327566;80;21211;-85
2021/04/16 18:26:00;;;;;;;45.90;27.58;;;;;;;3.40;90.92;99289.49;4325259;80;21189;-85
2021/04/16 18:32:03;;;;;;;46.60;28.52;;;;;;;3.36;91.00;99296.64;4328242;80;21154;-85
2021/04/16 18:38:22;;;;;;;48.65;28.57;;;;;;;3.37;91.03;99301.73;4326178;80;21166;-85
2021/04/16 18:44:29;;;;;;;42.70;24.20;;;;;;;3.34;91.00;99300.22;4337748;80;21185;-86
2021/04/16 18:50:31;;;;;;;42.53;23.38;;;;;;;3.34;90.96;99300.22;4336633;80;22335;-85
2021/04/16 18:56:35;;;;;;;36.88;22.75;;;;;;;3.33;91.01;99306.75;4327920;80;21178;-86
2021/04/16 19:02:37;;;;;;;41.77;22.80;;;;;;;3.31;91.11;99308.98;4339893;80;21198;-85
2021/04/16 19:08:39;;;;;;;39.25;22.93;;;;;;;3.32;91.12;99319.48;4329431;80;21183;-84
2021/04/16 19:14:42;;;;;;;41.35;23.27;;;;;;;3.28;91.10;99306.91;4334356;80;21234;-84
2021/04/16 19:20:46;;;;;;;43.60;24.37;;;;;;;3.28;91.21;99304.20;4338739;81;21177;-84
2021/04/16 19:26:48;;;;;;;39.73;21.48;;;;;;;3.27;91.25;99310.20;4341996;80;21180;-84
2021/04/16 19:32:50;;;;;;;43.35;24.15;;;;;;;3.31;91.52;99305.72;4340246;80;21152;-84
2021/04/16 19:38:52;;;;;;;44.05;23.98;;;;;;;3.24;91.46;99318.95;4335680;81;21171;-84
2021/04/16 19:44:54;;;;;;;40.75;22.67;;;;;;;3.26;91.45;99312.64;4346981;80;21190;-85
2021/04/16 20:22:42;;;;;;;43.85;25.32;;;;;;;3.23;91.60;99300.56;4481506;78;21216;-85
2021/04/16 20:28:44;;;;;;;41.05;24.20;;;;;;;3.23;91.58;99303.27;4484596;78;22349;-84
2021/04/16 20:35:02;;;;;;;46.88;23.22;;;;;;;3.28;91.65;99303.66;4481978;78;21160;-83
2021/04/16 20:41:09;;;;;;;35.52;20.75;;;;;;;3.29;91.52;99312.58;4476346;78;21126;-84
2021/04/16 20:47:14;;;;;;;;;;;;;;;3.29;91.55;99309.30;4395678;80;21216;-84
2021/04/16 20:53:17;;;;;;;42.75;21.02;;;;;;;3.22;91.65;99309.00;4343245;80;20320;-84
2021/04/16 20:59:20;;;;;;;31.87;18.27;;;;;;;3.16;91.52;99303.52;4311912;82;21208;-84
2021/04/16 21:05:27;;;;;;;33.18;17.40;;;;;;;3.14;91.50;99302.48;4314841;81;21134;-84
2021/04/16 21:11:37;;;;;;;32.83;19.17;;;;;;;3.12;91.55;99300.64;4367272;80;21598;-84
2021/04/16 21:17:40;;;;;;;35.17;18.15;;;;;;;3.08;91.40;99309.72;4275110;81;21203;-83
2021/04/16 21:23:46;;;;;;;31.80;18.60;;;;;;;3.07;91.59;99304.85;4240620;81;21157;-83
2021/04/16 21:29:48;;;;;;;33.08;19.98;;;;;;;3.07;91.68;99304.85;4359807;80;21202;-83
2021/04/16 21:35:49;;;;;;;37.85;20.95;;;;;;;3.05;91.65;99305.72;4307884;81;21161;-84
2021/04/16 21:41:54;;;;;;;37.40;21.48;;;;;;;3.02;91.73;99298.24;4344490;80;21354;-84
2021/04/16 21:48:00;;;;;;;36.98;21.17;;;;;;;3.05;91.76;99298.95;4312812;81;21606;-83
2021/04/16 21:54:07;;;;;;;28.80;15.33;;;;;;;3.08;91.89;99298.35;4343875;80;21781;-84
2021/04/16 22:00:32;;;;;;;40.05;22.87;;;;;;;3.08;91.72;99301.05;4327745;81;21250;-84
2021/04/16 22:06:48;;;;;;;34.95;19.32;;;;;;;3.08;91.86;99307.81;4402805;79;21582;-84
2021/04/16 22:12:53;;;;;;;38.65;19.73;;;;;;;3.09;91.79;99308.05;4407961;79;21364;-84
2021/04/16 22:18:55;;;;;;;31.93;17.92;;;;;;;3.08;91.73;99302.95;4404919;80;21113;-84
2021/04/16 22:25:14;;;;;;;31.75;18.05;;;;;;;3.05;91.82;99301.66;4401189;80;21546;-84
2021/04/16 22:31:28;;;;;;;32.17;16.60;;;;;;;3.06;91.83;99298.41;4397623;80;21658;-84
2021/04/16 22:37:32;;;;;;;30.60;16.30;;;;;;;3.02;91.82;99295.54;4396726;80;21182;-84
2021/04/16 22:43:45;;;;;;;30.77;17.10;;;;;;;3.01;91.91;99295.31;4397957;80;21151;-83
2021/04/16 22:49:50;;;;;;;36.03;17.95;;;;;;;3.04;91.89;99296.02;4371412;80;21267;-84
2021/04/16 22:55:55;;;;;;;31.57;17.30;;;;;;;3.08;91.80;99292.13;4398214;79;21129;-84
2021/04/16 23:02:04;;;;;;;28.98;16.65;;;;;;;3.07;91.81;99295.94;4399400;80;21153;-84
2021/04/16 23:08:31;;;;;;;32.45;16.70;;;;;;;3.06;91.99;99295.70;4399104;80;21165;-84
2021/04/16 23:14:33;;;;;;;22.00;13.00;;;;;;;3.11;91.91;99282.03;4400363;80;21176;-83
2021/04/16 23:20:36;;;;;;;29.32;16.02;;;;;;;3.09;91.86;99282.89;4398027;80;22558;-84
2021/04/16 23:26:45;;;;;;;33.92;17.57;;;;;;;3.11;91.90;99278.78;4403664;80;21129;-83
2021/04/16 23:33:43;;;;;;;33.92;19.23;;;;;;;3.07;91.89;99269.69;4397995;80;21295;-83
2021/04/16 23:39:51;;;;;;;31.75;17.37;;;;;;;3.05;91.94;99265.15;4404554;80;21125;-83
2021/04/16 23:45:52;;;;;;;35.15;17.12;;;;;;;3.03;92.02;99259.83;4401330;79;21166;-83
2021/04/16 23:51:56;;;;;;;36.28;19.87;;;;;;;3.04;92.00;99263.57;4402347;80;21296;-83
2021/04/16 23:58:04;;;;;;;34.27;19.15;;;;;;;3.00;91.98;99245.05;4400716;80;21194;-83
